Weather at Kuala Penyu Airport

Public forecast

Using degrees Celsius for public forecast. Weather courtesy of forecast.io.

Closest aviation weather report (METAR) to Kuala Penyu Airport

Closest report is Labuan Airport, 26.7 nm (49.4 km) SW.

2024/06/24 21:00 (retrieved 2 hours ago)

WBKL 242100Z 00000KT 9999 FEW035 27/25 Q1008

Closest aviation forecast (TAF) to Kuala Penyu Airport

Closest forecast is Labuan Airport, 26.7 nm (49.4 km) SW.

2024/06/24 18:00 (retrieved 5 hours ago)

TAF WBKL 241700Z 2418/2518 VRB03KT 9999 FEW014